sensor_id;sensor_type;location;lat;lon;timestamp;P1;durP1;ratioP1;P2;durP2;ratioP2
74660;SDS011;63191;39.566;2.654;2023-04-06T00:01:56;3.90;;;0.90;;
74660;SDS011;63191;39.566;2.654;2023-04-06T00:04:22;4.60;;;1.30;;
74660;SDS011;63191;39.566;2.654;2023-04-06T00:06:48;5.70;;;1.20;;
74660;SDS011;63191;39.566;2.654;2023-04-06T00:09:13;4.40;;;1.10;;
74660;SDS011;63191;39.566;2.654;2023-04-06T00:11:40;4.10;;;0.80;;
74660;SDS011;63191;39.566;2.654;2023-04-06T00:14:06;6.50;;;1.50;;
74660;SDS011;63191;39.566;2.654;2023-04-06T00:16:33;5.30;;;1.40;;
74660;SDS011;63191;39.566;2.654;2023-04-06T00:18:59;4.30;;;1.20;;
74660;SDS011;63191;39.566;2.654;2023-04-06T00:21:25;5.20;;;1.30;;
74660;SDS011;63191;39.566;2.654;2023-04-06T00:23:51;4.70;;;1.40;;
74660;SDS011;63191;39.566;2.654;2023-04-06T00:26:16;9.40;;;2.10;;
74660;SDS011;63191;39.566;2.654;2023-04-06T00:28:42;8.10;;;1.90;;
74660;SDS011;63191;39.566;2.654;2023-04-06T00:31:08;6.40;;;2.00;;
74660;SDS011;63191;39.566;2.654;2023-04-06T00:33:33;4.00;;;1.40;;
74660;SDS011;63191;39.566;2.654;2023-04-06T00:35:59;4.60;;;1.20;;
74660;SDS011;63191;39.566;2.654;2023-04-06T00:38:26;4.20;;;1.10;;
74660;SDS011;63191;39.566;2.654;2023-04-06T00:40:52;9.50;;;2.40;;
74660;SDS011;63191;39.566;2.654;2023-04-06T00:43:18;6.40;;;1.40;;
74660;SDS011;63191;39.566;2.654;2023-04-06T00:45:44;3.90;;;1.10;;
74660;SDS011;63191;39.566;2.654;2023-04-06T00:48:10;5.00;;;1.20;;
74660;SDS011;63191;39.566;2.654;2023-04-06T00:50:36;5.10;;;1.40;;
74660;SDS011;63191;39.566;2.654;2023-04-06T00:53:02;5.00;;;1.30;;
74660;SDS011;63191;39.566;2.654;2023-04-06T00:55:28;5.20;;;1.20;;
74660;SDS011;63191;39.566;2.654;2023-04-06T00:57:54;3.90;;;1.10;;
74660;SDS011;63191;39.566;2.654;2023-04-06T01:00:22;5.50;;;1.20;;
74660;SDS011;63191;39.566;2.654;2023-04-06T01:02:48;6.50;;;1.80;;
74660;SDS011;63191;39.566;2.654;2023-04-06T01:05:14;4.90;;;2.10;;
74660;SDS011;63191;39.566;2.654;2023-04-06T01:07:40;6.70;;;2.10;;
74660;SDS011;63191;39.566;2.654;2023-04-06T01:10:09;6.60;;;1.70;;
74660;SDS011;63191;39.566;2.654;2023-04-06T01:12:37;5.70;;;1.50;;
74660;SDS011;63191;39.566;2.654;2023-04-06T01:15:05;5.70;;;1.20;;
74660;SDS011;63191;39.566;2.654;2023-04-06T01:17:38;4.80;;;1.10;;
74660;SDS011;63191;39.566;2.654;2023-04-06T01:20:06;4.70;;;1.10;;
74660;SDS011;63191;39.566;2.654;2023-04-06T01:22:32;5.10;;;1.10;;
74660;SDS011;63191;39.566;2.654;2023-04-06T01:24:58;5.10;;;1.00;;
74660;SDS011;63191;39.566;2.654;2023-04-06T01:27:23;3.10;;;0.80;;
74660;SDS011;63191;39.566;2.654;2023-04-06T01:29:51;4.60;;;0.90;;
74660;SDS011;63191;39.566;2.654;2023-04-06T01:32:17;3.30;;;0.80;;
74660;SDS011;63191;39.566;2.654;2023-04-06T01:34:43;4.60;;;1.00;;
74660;SDS011;63191;39.566;2.654;2023-04-06T01:37:08;3.70;;;0.60;;
74660;SDS011;63191;39.566;2.654;2023-04-06T01:39:34;4.00;;;1.00;;
74660;SDS011;63191;39.566;2.654;2023-04-06T01:42:00;3.30;;;0.80;;
74660;SDS011;63191;39.566;2.654;2023-04-06T01:44:26;5.10;;;1.20;;
74660;SDS011;63191;39.566;2.654;2023-04-06T01:46:52;5.60;;;0.80;;
74660;SDS011;63191;39.566;2.654;2023-04-06T01:49:17;3.10;;;0.60;;
74660;SDS011;63191;39.566;2.654;2023-04-06T01:51:43;4.80;;;0.70;;
74660;SDS011;63191;39.566;2.654;2023-04-06T01:54:09;4.00;;;0.70;;
74660;SDS011;63191;39.566;2.654;2023-04-06T01:56:35;1.90;;;0.50;;
74660;SDS011;63191;39.566;2.654;2023-04-06T01:59:01;2.70;;;0.80;;
74660;SDS011;63191;39.566;2.654;2023-04-06T02:01:26;3.70;;;0.90;;
74660;SDS011;63191;39.566;2.654;2023-04-06T02:03:52;5.30;;;1.00;;
74660;SDS011;63191;39.566;2.654;2023-04-06T02:06:18;2.30;;;0.60;;
74660;SDS011;63191;39.566;2.654;2023-04-06T02:08:44;2.20;;;0.40;;
74660;SDS011;63191;39.566;2.654;2023-04-06T02:11:11;3.40;;;0.50;;
74660;SDS011;63191;39.566;2.654;2023-04-06T02:13:38;3.50;;;0.70;;
74660;SDS011;63191;39.566;2.654;2023-04-06T02:16:07;4.70;;;0.60;;
74660;SDS011;63191;39.566;2.654;2023-04-06T02:18:33;2.90;;;0.70;;
74660;SDS011;63191;39.566;2.654;2023-04-06T02:20:59;4.40;;;0.80;;
74660;SDS011;63191;39.566;2.654;2023-04-06T02:23:28;3.60;;;0.80;;
74660;SDS011;63191;39.566;2.654;2023-04-06T02:25:54;2.60;;;0.60;;
74660;SDS011;63191;39.566;2.654;2023-04-06T02:28:19;4.30;;;0.70;;
74660;SDS011;63191;39.566;2.654;2023-04-06T02:30:45;4.00;;;0.80;;
74660;SDS011;63191;39.566;2.654;2023-04-06T02:33:11;3.50;;;0.90;;
74660;SDS011;63191;39.566;2.654;2023-04-06T02:35:38;5.30;;;0.90;;
74660;SDS011;63191;39.566;2.654;2023-04-06T02:38:03;2.80;;;0.60;;
74660;SDS011;63191;39.566;2.654;2023-04-06T02:40:29;4.20;;;0.80;;
74660;SDS011;63191;39.566;2.654;2023-04-06T02:42:55;3.50;;;0.70;;
74660;SDS011;63191;39.566;2.654;2023-04-06T02:45:23;4.00;;;0.60;;
74660;SDS011;63191;39.566;2.654;2023-04-06T02:47:49;3.00;;;0.80;;
74660;SDS011;63191;39.566;2.654;2023-04-06T02:50:15;3.00;;;0.60;;
74660;SDS011;63191;39.566;2.654;2023-04-06T02:52:41;4.40;;;0.90;;
74660;SDS011;63191;39.566;2.654;2023-04-06T02:55:07;1.90;;;0.60;;
74660;SDS011;63191;39.566;2.654;2023-04-06T02:57:33;3.40;;;0.80;;
74660;SDS011;63191;39.566;2.654;2023-04-06T02:59:59;2.90;;;0.60;;
74660;SDS011;63191;39.566;2.654;2023-04-06T03:02:25;3.70;;;0.70;;
74660;SDS011;63191;39.566;2.654;2023-04-06T03:04:50;2.90;;;0.60;;
74660;SDS011;63191;39.566;2.654;2023-04-06T03:07:19;4.20;;;0.60;;
74660;SDS011;63191;39.566;2.654;2023-04-06T03:09:45;5.50;;;0.90;;
74660;SDS011;63191;39.566;2.654;2023-04-06T03:12:11;4.30;;;1.20;;
74660;SDS011;63191;39.566;2.654;2023-04-06T03:14:37;4.90;;;1.20;;
74660;SDS011;63191;39.566;2.654;2023-04-06T03:17:03;4.30;;;1.10;;
74660;SDS011;63191;39.566;2.654;2023-04-06T03:19:28;3.60;;;0.80;;
74660;SDS011;63191;39.566;2.654;2023-04-06T03:21:54;4.10;;;0.70;;
74660;SDS011;63191;39.566;2.654;2023-04-06T03:24:20;3.40;;;0.80;;
74660;SDS011;63191;39.566;2.654;2023-04-06T03:26:46;5.40;;;1.30;;
74660;SDS011;63191;39.566;2.654;2023-04-06T03:29:12;6.60;;;1.40;;
74660;SDS011;63191;39.566;2.654;2023-04-06T03:31:38;3.30;;;1.00;;
74660;SDS011;63191;39.566;2.654;2023-04-06T03:34:03;5.80;;;1.70;;
74660;SDS011;63191;39.566;2.654;2023-04-06T03:36:29;4.90;;;0.90;;
74660;SDS011;63191;39.566;2.654;2023-04-06T03:38:56;3.70;;;1.20;;
74660;SDS011;63191;39.566;2.654;2023-04-06T03:41:21;4.20;;;0.90;;
74660;SDS011;63191;39.566;2.654;2023-04-06T03:43:47;3.90;;;0.80;;
74660;SDS011;63191;39.566;2.654;2023-04-06T03:46:13;4.10;;;0.80;;
74660;SDS011;63191;39.566;2.654;2023-04-06T03:48:38;3.90;;;0.70;;
74660;SDS011;63191;39.566;2.654;2023-04-06T03:51:05;3.90;;;0.70;;
74660;SDS011;63191;39.566;2.654;2023-04-06T03:53:30;4.50;;;0.80;;
74660;SDS011;63191;39.566;2.654;2023-04-06T03:55:56;4.50;;;0.70;;
74660;SDS011;63191;39.566;2.654;2023-04-06T03:58:22;5.60;;;0.80;;
74660;SDS011;63191;39.566;2.654;2023-04-06T04:00:47;4.60;;;0.90;;
74660;SDS011;63191;39.566;2.654;2023-04-06T04:03:13;4.10;;;0.90;;
74660;SDS011;63191;39.566;2.654;2023-04-06T04:05:39;5.50;;;1.00;;
74660;SDS011;63191;39.566;2.654;2023-04-06T04:08:04;5.20;;;1.10;;
74660;SDS011;63191;39.566;2.654;2023-04-06T04:10:30;4.20;;;0.90;;
74660;SDS011;63191;39.566;2.654;2023-04-06T04:12:56;4.10;;;0.90;;
74660;SDS011;63191;39.566;2.654;2023-04-06T04:15:21;7.10;;;1.20;;
74660;SDS011;63191;39.566;2.654;2023-04-06T04:17:47;4.80;;;1.10;;
74660;SDS011;63191;39.566;2.654;2023-04-06T04:20:15;3.40;;;1.40;;
74660;SDS011;63191;39.566;2.654;2023-04-06T04:22:42;4.20;;;1.00;;
74660;SDS011;63191;39.566;2.654;2023-04-06T04:25:09;4.00;;;1.10;;
74660;SDS011;63191;39.566;2.654;2023-04-06T04:27:35;4.00;;;1.20;;
74660;SDS011;63191;39.566;2.654;2023-04-06T04:30:00;4.40;;;1.00;;
74660;SDS011;63191;39.566;2.654;2023-04-06T04:32:26;4.00;;;1.00;;
74660;SDS011;63191;39.566;2.654;2023-04-06T04:34:55;5.70;;;1.00;;
74660;SDS011;63191;39.566;2.654;2023-04-06T04:37:20;3.90;;;0.90;;
74660;SDS011;63191;39.566;2.654;2023-04-06T04:39:46;4.30;;;1.00;;
74660;SDS011;63191;39.566;2.654;2023-04-06T04:42:12;4.20;;;0.80;;
74660;SDS011;63191;39.566;2.654;2023-04-06T04:44:38;3.60;;;0.80;;
74660;SDS011;63191;39.566;2.654;2023-04-06T04:47:05;3.50;;;0.80;;
74660;SDS011;63191;39.566;2.654;2023-04-06T04:49:31;2.80;;;0.70;;
74660;SDS011;63191;39.566;2.654;2023-04-06T04:51:58;4.10;;;0.70;;
74660;SDS011;63191;39.566;2.654;2023-04-06T04:54:23;3.80;;;0.80;;
74660;SDS011;63191;39.566;2.654;2023-04-06T04:56:50;5.50;;;0.90;;
74660;SDS011;63191;39.566;2.654;2023-04-06T04:59:16;3.40;;;0.90;;
74660;SDS011;63191;39.566;2.654;2023-04-06T05:01:42;3.30;;;0.80;;
74660;SDS011;63191;39.566;2.654;2023-04-06T05:04:08;5.50;;;0.90;;
74660;SDS011;63191;39.566;2.654;2023-04-06T05:06:34;3.30;;;0.60;;
74660;SDS011;63191;39.566;2.654;2023-04-06T05:09:00;3.30;;;0.80;;
74660;SDS011;63191;39.566;2.654;2023-04-06T05:11:27;3.20;;;0.60;;
74660;SDS011;63191;39.566;2.654;2023-04-06T05:13:53;3.80;;;0.60;;
74660;SDS011;63191;39.566;2.654;2023-04-06T05:16:19;2.50;;;0.80;;
74660;SDS011;63191;39.566;2.654;2023-04-06T05:18:44;4.10;;;0.80;;
74660;SDS011;63191;39.566;2.654;2023-04-06T05:21:11;3.80;;;0.80;;
74660;SDS011;63191;39.566;2.654;2023-04-06T05:23:36;1.50;;;0.50;;
74660;SDS011;63191;39.566;2.654;2023-04-06T05:26:02;3.70;;;0.80;;
74660;SDS011;63191;39.566;2.654;2023-04-06T05:28:29;3.80;;;0.70;;
74660;SDS011;63191;39.566;2.654;2023-04-06T05:30:55;5.70;;;0.80;;
74660;SDS011;63191;39.566;2.654;2023-04-06T05:33:22;3.50;;;0.70;;
74660;SDS011;63191;39.566;2.654;2023-04-06T05:35:50;3.00;;;0.90;;
74660;SDS011;63191;39.566;2.654;2023-04-06T05:38:16;3.90;;;0.70;;
74660;SDS011;63191;39.566;2.654;2023-04-06T05:40:41;7.20;;;0.90;;
74660;SDS011;63191;39.566;2.654;2023-04-06T05:43:07;4.40;;;0.90;;
74660;SDS011;63191;39.566;2.654;2023-04-06T05:45:34;5.00;;;0.90;;
74660;SDS011;63191;39.566;2.654;2023-04-06T05:48:01;4.80;;;1.10;;
74660;SDS011;63191;39.566;2.654;2023-04-06T05:50:29;4.60;;;1.10;;
74660;SDS011;63191;39.566;2.654;2023-04-06T05:52:56;3.80;;;0.90;;
74660;SDS011;63191;39.566;2.654;2023-04-06T05:55:22;4.70;;;1.00;;
74660;SDS011;63191;39.566;2.654;2023-04-06T05:57:49;5.10;;;1.20;;
74660;SDS011;63191;39.566;2.654;2023-04-06T06:00:15;4.50;;;0.90;;
74660;SDS011;63191;39.566;2.654;2023-04-06T06:02:41;6.40;;;1.10;;
74660;SDS011;63191;39.566;2.654;2023-04-06T06:05:08;7.20;;;1.30;;
74660;SDS011;63191;39.566;2.654;2023-04-06T06:07:35;4.80;;;1.20;;
74660;SDS011;63191;39.566;2.654;2023-04-06T06:10:01;3.80;;;1.10;;
74660;SDS011;63191;39.566;2.654;2023-04-06T06:12:27;4.90;;;1.00;;
74660;SDS011;63191;39.566;2.654;2023-04-06T06:14:53;5.30;;;1.00;;
74660;SDS011;63191;39.566;2.654;2023-04-06T06:17:19;4.20;;;1.00;;
74660;SDS011;63191;39.566;2.654;2023-04-06T06:19:45;5.40;;;1.40;;
74660;SDS011;63191;39.566;2.654;2023-04-06T06:22:11;4.70;;;1.20;;
74660;SDS011;63191;39.566;2.654;2023-04-06T06:24:36;4.50;;;1.00;;
74660;SDS011;63191;39.566;2.654;2023-04-06T06:27:02;4.60;;;1.10;;
74660;SDS011;63191;39.566;2.654;2023-04-06T06:29:28;5.10;;;1.10;;
74660;SDS011;63191;39.566;2.654;2023-04-06T06:31:54;5.70;;;1.30;;
74660;SDS011;63191;39.566;2.654;2023-04-06T06:34:20;3.10;;;0.90;;
74660;SDS011;63191;39.566;2.654;2023-04-06T06:36:45;4.10;;;1.20;;
74660;SDS011;63191;39.566;2.654;2023-04-06T06:39:11;5.10;;;1.30;;
74660;SDS011;63191;39.566;2.654;2023-04-06T06:41:37;5.90;;;1.20;;
74660;SDS011;63191;39.566;2.654;2023-04-06T06:44:03;4.60;;;1.40;;
74660;SDS011;63191;39.566;2.654;2023-04-06T06:46:28;6.30;;;1.90;;
74660;SDS011;63191;39.566;2.654;2023-04-06T06:48:58;4.80;;;1.60;;
74660;SDS011;63191;39.566;2.654;2023-04-06T06:51:24;5.80;;;1.90;;
74660;SDS011;63191;39.566;2.654;2023-04-06T06:53:50;5.90;;;1.60;;
74660;SDS011;63191;39.566;2.654;2023-04-06T06:56:15;7.00;;;1.60;;
74660;SDS011;63191;39.566;2.654;2023-04-06T06:58:41;3.60;;;1.20;;
74660;SDS011;63191;39.566;2.654;2023-04-06T07:01:07;4.30;;;1.60;;
74660;SDS011;63191;39.566;2.654;2023-04-06T07:03:33;4.50;;;1.80;;
74660;SDS011;63191;39.566;2.654;2023-04-06T07:05:59;3.70;;;1.70;;
74660;SDS011;63191;39.566;2.654;2023-04-06T07:08:24;5.00;;;1.70;;
74660;SDS011;63191;39.566;2.654;2023-04-06T07:10:52;4.90;;;2.20;;
74660;SDS011;63191;39.566;2.654;2023-04-06T07:13:20;4.50;;;2.10;;
74660;SDS011;63191;39.566;2.654;2023-04-06T07:15:51;5.20;;;2.20;;
74660;SDS011;63191;39.566;2.654;2023-04-06T07:18:17;4.60;;;2.30;;
74660;SDS011;63191;39.566;2.654;2023-04-06T07:20:44;5.60;;;2.40;;
74660;SDS011;63191;39.566;2.654;2023-04-06T07:23:10;4.60;;;2.20;;
74660;SDS011;63191;39.566;2.654;2023-04-06T07:25:36;5.40;;;1.90;;
74660;SDS011;63191;39.566;2.654;2023-04-06T07:28:03;4.60;;;1.70;;
74660;SDS011;63191;39.566;2.654;2023-04-06T07:30:29;5.10;;;1.60;;
74660;SDS011;63191;39.566;2.654;2023-04-06T07:32:55;5.30;;;1.50;;
74660;SDS011;63191;39.566;2.654;2023-04-06T07:35:22;5.30;;;1.30;;
74660;SDS011;63191;39.566;2.654;2023-04-06T07:37:48;3.00;;;1.20;;
74660;SDS011;63191;39.566;2.654;2023-04-06T07:40:15;4.80;;;1.20;;
74660;SDS011;63191;39.566;2.654;2023-04-06T07:42:40;4.80;;;1.10;;
74660;SDS011;63191;39.566;2.654;2023-04-06T07:45:06;4.10;;;1.10;;
74660;SDS011;63191;39.566;2.654;2023-04-06T07:47:33;4.20;;;1.00;;
74660;SDS011;63191;39.566;2.654;2023-04-06T07:49:59;3.30;;;1.10;;
74660;SDS011;63191;39.566;2.654;2023-04-06T07:52:25;4.90;;;1.00;;
74660;SDS011;63191;39.566;2.654;2023-04-06T07:54:50;4.30;;;1.10;;
74660;SDS011;63191;39.566;2.654;2023-04-06T07:57:16;4.10;;;1.10;;
74660;SDS011;63191;39.566;2.654;2023-04-06T07:59:43;4.60;;;1.30;;
74660;SDS011;63191;39.566;2.654;2023-04-06T08:02:08;4.20;;;0.90;;
74660;SDS011;63191;39.566;2.654;2023-04-06T08:04:35;4.20;;;1.10;;
74660;SDS011;63191;39.566;2.654;2023-04-06T08:07:01;4.80;;;1.10;;
74660;SDS011;63191;39.566;2.654;2023-04-06T08:09:27;5.30;;;1.10;;
74660;SDS011;63191;39.566;2.654;2023-04-06T08:11:53;4.40;;;1.10;;
74660;SDS011;63191;39.566;2.654;2023-04-06T08:14:19;3.60;;;0.90;;
74660;SDS011;63191;39.566;2.654;2023-04-06T08:16:45;5.80;;;1.20;;
74660;SDS011;63191;39.566;2.654;2023-04-06T08:19:11;4.30;;;1.10;;
74660;SDS011;63191;39.566;2.654;2023-04-06T08:21:37;5.10;;;1.10;;
74660;SDS011;63191;39.566;2.654;2023-04-06T08:24:03;6.00;;;1.10;;
74660;SDS011;63191;39.566;2.654;2023-04-06T08:26:31;2.70;;;1.00;;
74660;SDS011;63191;39.566;2.654;2023-04-06T08:28:58;6.60;;;1.00;;
74660;SDS011;63191;39.566;2.654;2023-04-06T08:31:24;4.70;;;1.10;;
74660;SDS011;63191;39.566;2.654;2023-04-06T08:33:50;3.80;;;0.80;;
74660;SDS011;63191;39.566;2.654;2023-04-06T08:36:16;4.00;;;1.00;;
74660;SDS011;63191;39.566;2.654;2023-04-06T08:38:48;5.40;;;1.30;;
74660;SDS011;63191;39.566;2.654;2023-04-06T08:41:15;6.00;;;1.00;;
74660;SDS011;63191;39.566;2.654;2023-04-06T08:43:52;3.00;;;0.90;;
74660;SDS011;63191;39.566;2.654;2023-04-06T08:46:21;3.70;;;1.20;;
74660;SDS011;63191;39.566;2.654;2023-04-06T08:48:47;4.00;;;1.10;;
74660;SDS011;63191;39.566;2.654;2023-04-06T08:51:17;4.00;;;1.00;;
74660;SDS011;63191;39.566;2.654;2023-04-06T08:53:44;4.70;;;0.90;;
74660;SDS011;63191;39.566;2.654;2023-04-06T08:56:10;2.80;;;0.90;;
74660;SDS011;63191;39.566;2.654;2023-04-06T08:58:39;3.50;;;0.90;;
74660;SDS011;63191;39.566;2.654;2023-04-06T09:01:07;4.60;;;1.00;;
74660;SDS011;63191;39.566;2.654;2023-04-06T09:03:39;4.50;;;1.00;;
74660;SDS011;63191;39.566;2.654;2023-04-06T09:06:06;5.90;;;1.60;;
74660;SDS011;63191;39.566;2.654;2023-04-06T09:08:34;5.40;;;1.30;;
74660;SDS011;63191;39.566;2.654;2023-04-06T09:11:02;5.50;;;1.30;;
74660;SDS011;63191;39.566;2.654;2023-04-06T09:13:28;3.30;;;1.20;;
74660;SDS011;63191;39.566;2.654;2023-04-06T09:16:01;6.30;;;1.50;;
74660;SDS011;63191;39.566;2.654;2023-04-06T09:18:33;4.70;;;1.40;;
74660;SDS011;63191;39.566;2.654;2023-04-06T09:21:04;3.70;;;1.20;;
74660;SDS011;63191;39.566;2.654;2023-04-06T09:23:31;4.60;;;1.50;;
74660;SDS011;63191;39.566;2.654;2023-04-06T09:26:14;4.00;;;1.10;;
74660;SDS011;63191;39.566;2.654;2023-04-06T09:28:51;4.00;;;0.90;;
74660;SDS011;63191;39.566;2.654;2023-04-06T09:31:25;5.40;;;0.90;;
74660;SDS011;63191;39.566;2.654;2023-04-06T09:33:58;4.10;;;0.90;;
74660;SDS011;63191;39.566;2.654;2023-04-06T09:36:35;3.90;;;0.80;;
74660;SDS011;63191;39.566;2.654;2023-04-06T09:39:06;4.00;;;1.30;;
74660;SDS011;63191;39.566;2.654;2023-04-06T09:41:34;5.10;;;1.20;;
74660;SDS011;63191;39.566;2.654;2023-04-06T09:44:09;2.80;;;0.70;;
74660;SDS011;63191;39.566;2.654;2023-04-06T09:46:45;3.70;;;0.60;;
74660;SDS011;63191;39.566;2.654;2023-04-06T09:49:13;4.30;;;0.90;;
74660;SDS011;63191;39.566;2.654;2023-04-06T09:51:47;3.30;;;0.70;;
74660;SDS011;63191;39.566;2.654;2023-04-06T09:54:20;8.50;;;3.10;;
74660;SDS011;63191;39.566;2.654;2023-04-06T10:00:02;3.80;;;0.80;;
74660;SDS011;63191;39.566;2.654;2023-04-06T10:07:57;3.30;;;0.70;;
74660;SDS011;63191;39.566;2.654;2023-04-06T10:10:25;4.90;;;0.70;;
74660;SDS011;63191;39.566;2.654;2023-04-06T10:12:53;2.70;;;0.90;;
74660;SDS011;63191;39.566;2.654;2023-04-06T10:15:21;2.40;;;0.70;;
74660;SDS011;63191;39.566;2.654;2023-04-06T10:17:47;9.00;;;4.20;;
74660;SDS011;63191;39.566;2.654;2023-04-06T10:20:22;4.70;;;0.80;;
74660;SDS011;63191;39.566;2.654;2023-04-06T10:23:10;3.90;;;0.80;;
74660;SDS011;63191;39.566;2.654;2023-04-06T10:25:52;2.70;;;0.70;;
74660;SDS011;63191;39.566;2.654;2023-04-06T10:28:19;3.80;;;1.00;;
74660;SDS011;63191;39.566;2.654;2023-04-06T10:30:45;3.80;;;1.50;;
74660;SDS011;63191;39.566;2.654;2023-04-06T10:35:44;4.20;;;0.90;;
74660;SDS011;63191;39.566;2.654;2023-04-06T10:38:10;2.70;;;0.70;;
74660;SDS011;63191;39.566;2.654;2023-04-06T10:40:41;3.10;;;0.60;;
74660;SDS011;63191;39.566;2.654;2023-04-06T10:43:10;3.00;;;0.70;;
74660;SDS011;63191;39.566;2.654;2023-04-06T10:45:37;2.80;;;0.60;;
74660;SDS011;63191;39.566;2.654;2023-04-06T10:48:15;4.80;;;1.30;;
74660;SDS011;63191;39.566;2.654;2023-04-06T10:50:52;5.00;;;0.90;;
74660;SDS011;63191;39.566;2.654;2023-04-06T10:53:26;2.40;;;0.60;;
74660;SDS011;63191;39.566;2.654;2023-04-06T10:55:54;3.40;;;0.70;;
74660;SDS011;63191;39.566;2.654;2023-04-06T10:58:25;3.40;;;0.60;;
74660;SDS011;63191;39.566;2.654;2023-04-06T11:00:51;4.90;;;0.90;;
74660;SDS011;63191;39.566;2.654;2023-04-06T11:03:18;7.60;;;2.60;;
74660;SDS011;63191;39.566;2.654;2023-04-06T11:05:47;4.20;;;0.90;;
74660;SDS011;63191;39.566;2.654;2023-04-06T11:08:29;5.40;;;1.70;;
74660;SDS011;63191;39.566;2.654;2023-04-06T11:11:10;3.30;;;1.00;;
74660;SDS011;63191;39.566;2.654;2023-04-06T11:16:25;1.80;;;0.60;;
74660;SDS011;63191;39.566;2.654;2023-04-06T11:19:01;4.10;;;1.00;;
74660;SDS011;63191;39.566;2.654;2023-04-06T11:21:39;4.70;;;0.70;;
74660;SDS011;63191;39.566;2.654;2023-04-06T11:24:13;3.10;;;0.80;;
74660;SDS011;63191;39.566;2.654;2023-04-06T11:40:26;3.10;;;0.60;;
74660;SDS011;63191;39.566;2.654;2023-04-06T11:42:54;2.40;;;0.60;;
74660;SDS011;63191;39.566;2.654;2023-04-06T11:45:41;2.60;;;0.50;;
74660;SDS011;63191;39.566;2.654;2023-04-06T11:48:18;2.30;;;0.40;;
74660;SDS011;63191;39.566;2.654;2023-04-06T11:50:46;2.80;;;0.50;;
74660;SDS011;63191;39.566;2.654;2023-04-06T11:53:22;2.90;;;0.50;;
74660;SDS011;63191;39.566;2.654;2023-04-06T11:58:14;4.20;;;0.50;;
74660;SDS011;63191;39.566;2.654;2023-04-06T12:00:40;3.10;;;0.60;;
74660;SDS011;63191;39.566;2.654;2023-04-06T12:03:42;2.50;;;0.50;;
74660;SDS011;63191;39.566;2.654;2023-04-06T12:06:11;2.10;;;0.60;;
74660;SDS011;63191;39.566;2.654;2023-04-06T12:08:40;4.50;;;0.60;;
74660;SDS011;63191;39.566;2.654;2023-04-06T12:11:06;3.40;;;0.70;;
74660;SDS011;63191;39.566;2.654;2023-04-06T12:13:34;2.50;;;0.50;;
74660;SDS011;63191;39.566;2.654;2023-04-06T12:16:01;2.40;;;0.60;;
74660;SDS011;63191;39.566;2.654;2023-04-06T12:18:27;1.50;;;0.60;;
74660;SDS011;63191;39.566;2.654;2023-04-06T12:20:53;3.90;;;0.70;;
74660;SDS011;63191;39.566;2.654;2023-04-06T12:23:19;1.80;;;0.70;;
74660;SDS011;63191;39.566;2.654;2023-04-06T12:25:45;2.00;;;0.70;;
74660;SDS011;63191;39.566;2.654;2023-04-06T12:28:11;3.50;;;1.10;;
74660;SDS011;63191;39.566;2.654;2023-04-06T12:30:40;3.70;;;1.20;;
74660;SDS011;63191;39.566;2.654;2023-04-06T12:33:11;4.20;;;1.40;;
74660;SDS011;63191;39.566;2.654;2023-04-06T12:35:42;4.80;;;1.90;;
74660;SDS011;63191;39.566;2.654;2023-04-06T12:38:11;5.90;;;2.60;;
74660;SDS011;63191;39.566;2.654;2023-04-06T12:40:39;4.80;;;2.40;;
74660;SDS011;63191;39.566;2.654;2023-04-06T12:43:06;4.20;;;2.30;;
74660;SDS011;63191;39.566;2.654;2023-04-06T12:45:32;5.50;;;3.00;;
74660;SDS011;63191;39.566;2.654;2023-04-06T12:47:58;4.80;;;3.20;;
74660;SDS011;63191;39.566;2.654;2023-04-06T12:50:24;4.60;;;3.50;;
74660;SDS011;63191;39.566;2.654;2023-04-06T12:52:50;5.10;;;3.60;;
74660;SDS011;63191;39.566;2.654;2023-04-06T12:55:18;5.60;;;4.30;;
74660;SDS011;63191;39.566;2.654;2023-04-06T12:57:44;5.30;;;4.00;;
74660;SDS011;63191;39.566;2.654;2023-04-06T13:00:12;6.40;;;4.70;;
74660;SDS011;63191;39.566;2.654;2023-04-06T13:02:40;5.60;;;4.40;;
74660;SDS011;63191;39.566;2.654;2023-04-06T13:05:12;6.60;;;4.80;;
74660;SDS011;63191;39.566;2.654;2023-04-06T13:07:40;5.60;;;4.40;;
74660;SDS011;63191;39.566;2.654;2023-04-06T13:10:06;5.90;;;5.00;;
74660;SDS011;63191;39.566;2.654;2023-04-06T13:12:32;5.40;;;4.80;;
74660;SDS011;63191;39.566;2.654;2023-04-06T13:14:57;5.60;;;4.60;;
74660;SDS011;63191;39.566;2.654;2023-04-06T13:17:23;5.30;;;4.10;;
74660;SDS011;63191;39.566;2.654;2023-04-06T13:19:54;6.10;;;4.50;;
74660;SDS011;63191;39.566;2.654;2023-04-06T13:22:21;5.20;;;3.70;;
74660;SDS011;63191;39.566;2.654;2023-04-06T13:24:46;5.20;;;3.40;;
74660;SDS011;63191;39.566;2.654;2023-04-06T13:27:12;5.70;;;3.90;;
74660;SDS011;63191;39.566;2.654;2023-04-06T13:29:38;4.80;;;3.10;;
74660;SDS011;63191;39.566;2.654;2023-04-06T13:32:04;4.80;;;2.40;;
74660;SDS011;63191;39.566;2.654;2023-04-06T13:34:30;3.80;;;2.30;;
74660;SDS011;63191;39.566;2.654;2023-04-06T13:36:56;3.40;;;1.90;;
74660;SDS011;63191;39.566;2.654;2023-04-06T13:39:22;3.50;;;1.70;;
74660;SDS011;63191;39.566;2.654;2023-04-06T13:41:47;4.10;;;1.50;;
74660;SDS011;63191;39.566;2.654;2023-04-06T13:44:13;3.90;;;1.40;;
74660;SDS011;63191;39.566;2.654;2023-04-06T13:46:41;7.10;;;1.80;;
74660;SDS011;63191;39.566;2.654;2023-04-06T13:49:08;4.50;;;1.30;;
74660;SDS011;63191;39.566;2.654;2023-04-06T13:51:34;4.70;;;1.40;;
74660;SDS011;63191;39.566;2.654;2023-04-06T13:54:00;4.50;;;1.10;;
74660;SDS011;63191;39.566;2.654;2023-04-06T13:56:26;3.90;;;1.10;;
74660;SDS011;63191;39.566;2.654;2023-04-06T13:58:53;3.90;;;1.20;;
74660;SDS011;63191;39.566;2.654;2023-04-06T14:01:20;2.60;;;1.00;;
74660;SDS011;63191;39.566;2.654;2023-04-06T14:03:48;2.50;;;0.90;;
74660;SDS011;63191;39.566;2.654;2023-04-06T14:06:14;4.40;;;0.60;;
74660;SDS011;63191;39.566;2.654;2023-04-06T14:08:40;3.60;;;1.00;;
74660;SDS011;63191;39.566;2.654;2023-04-06T14:11:10;4.10;;;0.70;;
74660;SDS011;63191;39.566;2.654;2023-04-06T14:13:37;2.80;;;0.90;;
74660;SDS011;63191;39.566;2.654;2023-04-06T14:16:03;2.90;;;0.60;;
74660;SDS011;63191;39.566;2.654;2023-04-06T14:18:30;3.20;;;0.80;;
74660;SDS011;63191;39.566;2.654;2023-04-06T14:20:57;2.60;;;0.70;;
74660;SDS011;63191;39.566;2.654;2023-04-06T14:23:27;2.90;;;0.70;;
74660;SDS011;63191;39.566;2.654;2023-04-06T14:26:08;3.00;;;0.60;;
74660;SDS011;63191;39.566;2.654;2023-04-06T14:28:37;3.20;;;0.50;;
74660;SDS011;63191;39.566;2.654;2023-04-06T14:31:11;3.70;;;0.50;;
74660;SDS011;63191;39.566;2.654;2023-04-06T14:33:38;2.40;;;0.50;;
74660;SDS011;63191;39.566;2.654;2023-04-06T14:36:08;2.20;;;0.60;;
74660;SDS011;63191;39.566;2.654;2023-04-06T14:38:38;2.20;;;0.40;;
74660;SDS011;63191;39.566;2.654;2023-04-06T14:41:05;1.90;;;0.60;;
74660;SDS011;63191;39.566;2.654;2023-04-06T14:43:31;3.60;;;0.70;;
74660;SDS011;63191;39.566;2.654;2023-04-06T14:46:01;3.00;;;0.80;;
74660;SDS011;63191;39.566;2.654;2023-04-06T14:48:29;2.30;;;0.70;;
74660;SDS011;63191;39.566;2.654;2023-04-06T14:50:58;2.60;;;0.60;;
74660;SDS011;63191;39.566;2.654;2023-04-06T14:53:24;2.80;;;0.70;;
74660;SDS011;63191;39.566;2.654;2023-04-06T14:55:50;3.00;;;0.50;;
74660;SDS011;63191;39.566;2.654;2023-04-06T14:58:17;4.30;;;0.50;;
74660;SDS011;63191;39.566;2.654;2023-04-06T15:00:45;2.30;;;0.50;;
74660;SDS011;63191;39.566;2.654;2023-04-06T15:03:11;2.00;;;0.50;;
74660;SDS011;63191;39.566;2.654;2023-04-06T15:05:37;1.30;;;0.40;;
74660;SDS011;63191;39.566;2.654;2023-04-06T15:08:03;2.80;;;0.50;;
74660;SDS011;63191;39.566;2.654;2023-04-06T15:10:31;2.40;;;0.40;;
74660;SDS011;63191;39.566;2.654;2023-04-06T15:12:58;2.60;;;0.50;;
74660;SDS011;63191;39.566;2.654;2023-04-06T15:15:24;2.00;;;0.50;;
74660;SDS011;63191;39.566;2.654;2023-04-06T15:17:50;3.20;;;0.50;;
74660;SDS011;63191;39.566;2.654;2023-04-06T15:20:17;4.90;;;0.60;;